createdAt,value
2024-01-20T00:01:09.141Z,0.99
2024-01-20T00:03:36.958Z,1.00
2024-01-20T00:06:04.906Z,0.99
2024-01-20T00:08:32.376Z,0.98
2024-01-20T00:10:59.994Z,1.01
2024-01-20T00:13:27.686Z,1.11
2024-01-20T00:15:55.144Z,1.08
2024-01-20T00:18:22.988Z,1.03
2024-01-20T00:20:51.286Z,1.08
2024-01-20T00:23:18.869Z,1.08
2024-01-20T00:25:46.512Z,1.14
2024-01-20T00:28:13.999Z,1.05
2024-01-20T00:30:41.688Z,1.08
2024-01-20T00:33:09.873Z,1.07
2024-01-20T00:35:38.166Z,1.05
2024-01-20T00:38:05.637Z,0.98
2024-01-20T00:40:32.989Z,0.98
2024-01-20T00:43:00.480Z,1.02
2024-01-20T00:45:27.881Z,0.99
2024-01-20T00:47:55.378Z,0.93
2024-01-20T00:50:23.775Z,0.96
2024-01-20T00:52:51.228Z,1.02
2024-01-20T00:55:18.977Z,1.02
2024-01-20T00:57:47.079Z,1.01
2024-01-20T01:00:14.996Z,1.10
2024-01-20T01:02:42.748Z,1.08
2024-01-20T01:05:10.732Z,1.08
2024-01-20T01:07:38.403Z,1.08
2024-01-20T01:10:07.892Z,1.13
2024-01-20T01:12:36.370Z,1.14
2024-01-20T01:15:06.210Z,1.15
2024-01-20T01:17:34.163Z,1.10
2024-01-20T01:20:02.031Z,1.15
2024-01-20T01:22:29.490Z,1.15
2024-01-20T01:24:56.859Z,1.16
2024-01-20T01:27:24.266Z,1.21
2024-01-20T01:29:52.156Z,1.23
2024-01-20T01:32:20.462Z,1.31
2024-01-20T01:34:48.044Z,1.27
2024-01-20T01:37:15.928Z,1.28
2024-01-20T01:39:44.039Z,1.31
2024-01-20T01:42:11.517Z,1.33
2024-01-20T01:44:39.024Z,1.27
2024-01-20T01:47:06.671Z,1.33
2024-01-20T01:49:34.100Z,1.31
2024-01-20T01:52:01.512Z,1.29
2024-01-20T01:54:29.097Z,1.37
2024-01-20T01:57:01.266Z,1.35
2024-01-20T01:59:34.131Z,1.35
2024-01-20T02:02:01.485Z,1.38
2024-01-20T02:04:28.926Z,1.35
2024-01-20T02:06:56.845Z,1.36
2024-01-20T02:09:25.842Z,1.39
2024-01-20T02:11:54.819Z,1.40
2024-01-20T02:14:22.714Z,1.40
2024-01-20T02:16:50.262Z,1.42
2024-01-20T02:19:17.625Z,1.40
2024-01-20T02:21:45.018Z,1.43
2024-01-20T02:24:13.255Z,1.42
2024-01-20T02:26:40.706Z,1.47
2024-01-20T02:29:08.103Z,1.50
2024-01-20T02:31:35.458Z,1.44
2024-01-20T02:34:03.062Z,1.48
2024-01-20T02:36:30.584Z,1.51
2024-01-20T02:38:58.116Z,1.52
2024-01-20T02:41:25.918Z,1.50
2024-01-20T02:43:53.260Z,1.50
2024-01-20T02:46:20.914Z,1.48
2024-01-20T02:48:48.360Z,1.52
2024-01-20T02:51:15.838Z,1.50
2024-01-20T02:53:43.451Z,1.54
2024-01-20T02:56:10.813Z,1.55
2024-01-20T02:58:38.241Z,1.60
2024-01-20T03:01:07.742Z,1.56
2024-01-20T03:03:35.332Z,1.62
2024-01-20T03:06:03.634Z,1.56
2024-01-20T03:08:31.137Z,1.61
2024-01-20T03:10:58.542Z,1.57
2024-01-20T03:13:25.968Z,1.57
2024-01-20T03:15:53.371Z,1.57
2024-01-20T03:18:20.869Z,1.51
2024-01-20T03:20:48.506Z,1.53
2024-01-20T03:23:16.176Z,1.54
2024-01-20T03:25:43.677Z,1.55
2024-01-20T03:28:11.084Z,1.50
2024-01-20T03:30:38.505Z,1.58
2024-01-20T03:33:06.402Z,1.56
2024-01-20T03:35:33.846Z,1.59
2024-01-20T03:38:01.289Z,1.56
2024-01-20T03:40:29.833Z,1.60
2024-01-20T03:42:57.564Z,1.59
2024-01-20T03:45:24.974Z,1.60
2024-01-20T03:47:52.763Z,1.58
2024-01-20T03:50:20.353Z,1.66
2024-01-20T03:52:48.374Z,1.61
2024-01-20T03:55:15.774Z,1.58
2024-01-20T03:57:43.240Z,1.61
2024-01-20T04:00:11.227Z,1.58
2024-01-20T04:02:38.819Z,1.63
2024-01-20T04:05:07.274Z,1.61
2024-01-20T04:07:34.703Z,1.60
2024-01-20T04:10:02.398Z,1.61
2024-01-20T04:12:29.984Z,1.61
2024-01-20T04:14:57.628Z,1.61
2024-01-20T04:17:25.122Z,1.52
2024-01-20T04:19:52.491Z,1.54
2024-01-20T04:22:19.945Z,1.58
2024-01-20T04:24:47.318Z,1.57
2024-01-20T04:27:14.757Z,1.56
2024-01-20T04:29:42.170Z,1.50
2024-01-20T04:32:09.577Z,1.56
2024-01-20T04:34:37.073Z,1.58
2024-01-20T04:37:04.599Z,1.61
2024-01-20T04:39:32.146Z,1.55
2024-01-20T04:41:59.618Z,1.53
2024-01-20T04:44:27.011Z,1.51
2024-01-20T04:46:54.374Z,1.55
2024-01-20T04:49:21.803Z,1.48
2024-01-20T04:51:49.238Z,1.51
2024-01-20T04:54:16.620Z,1.54
2024-01-20T04:56:44.008Z,1.56
2024-01-20T04:59:11.390Z,1.56
2024-01-20T05:01:40.842Z,1.53
2024-01-20T05:04:08.487Z,1.54
2024-01-20T05:06:35.970Z,1.48
2024-01-20T05:09:03.914Z,1.41
2024-01-20T05:11:31.307Z,1.45
2024-01-20T05:13:58.753Z,1.29
2024-01-20T05:16:26.130Z,1.30
2024-01-20T05:18:53.870Z,1.33
2024-01-20T05:21:21.617Z,1.28
2024-01-20T05:23:49.816Z,1.27
2024-01-20T05:26:17.200Z,1.25
2024-01-20T05:28:50.240Z,1.27
2024-01-20T05:31:25.607Z,1.30
2024-01-20T05:33:53.352Z,1.29
2024-01-20T05:36:20.942Z,1.30
2024-01-20T05:38:48.413Z,1.24
2024-01-20T05:41:15.844Z,1.16
2024-01-20T05:43:43.287Z,1.14
2024-01-20T05:46:11.043Z,1.18
2024-01-20T05:48:38.963Z,1.09
2024-01-20T05:51:06.880Z,1.08
2024-01-20T05:53:34.261Z,1.02
2024-01-20T05:56:01.675Z,1.08
2024-01-20T05:58:29.186Z,1.05
2024-01-20T06:00:56.829Z,1.01
2024-01-20T06:03:27.183Z,0.98
2024-01-20T06:05:55.334Z,0.99
2024-01-20T06:08:23.049Z,1.04
2024-01-20T06:10:51.448Z,0.99
2024-01-20T06:13:20.039Z,0.98
2024-01-20T06:15:47.405Z,0.98
2024-01-20T06:18:14.913Z,0.92
2024-01-20T06:20:42.375Z,0.94
2024-01-20T06:23:10.166Z,0.94
2024-01-20T06:25:37.743Z,0.99
2024-01-20T06:28:06.903Z,0.99
2024-01-20T06:30:34.456Z,0.91
2024-01-20T06:33:01.948Z,0.97
2024-01-20T06:35:29.411Z,0.90
2024-01-20T06:37:58.677Z,0.82
2024-01-20T06:40:26.294Z,0.81
2024-01-20T06:42:53.932Z,0.78
2024-01-20T06:45:21.655Z,0.79
2024-01-20T06:47:49.193Z,0.78
2024-01-20T06:50:17.213Z,0.76
2024-01-20T06:52:44.749Z,0.76
2024-01-20T06:55:12.250Z,0.75
2024-01-20T06:57:39.776Z,0.70
2024-01-20T07:00:09.636Z,0.74
2024-01-20T07:02:37.267Z,0.74
2024-01-20T07:05:06.361Z,0.71
2024-01-20T07:07:38.359Z,0.70
2024-01-20T07:10:09.884Z,0.66
2024-01-20T07:12:38.263Z,0.63
2024-01-20T07:15:06.966Z,0.61
2024-01-20T07:17:35.465Z,0.62
2024-01-20T07:20:02.983Z,0.63
2024-01-20T07:22:32.547Z,0.62
2024-01-20T07:25:00.013Z,0.62
2024-01-20T07:27:27.444Z,0.67
2024-01-20T07:29:54.878Z,0.62
2024-01-20T07:32:22.386Z,0.58
2024-01-20T07:34:50.029Z,0.64
2024-01-20T07:37:17.953Z,0.61
2024-01-20T07:39:48.086Z,0.59
2024-01-20T07:42:16.063Z,0.62
2024-01-20T07:44:43.500Z,0.59
2024-01-20T07:47:12.106Z,0.61
2024-01-20T07:49:39.726Z,0.62
2024-01-20T07:52:07.225Z,0.63
2024-01-20T07:54:34.765Z,0.61
2024-01-20T07:57:02.534Z,0.58
2024-01-20T07:59:30.345Z,0.55
2024-01-20T08:01:57.782Z,0.56
2024-01-20T08:04:25.275Z,0.61
2024-01-20T08:06:53.632Z,0.60
2024-01-20T08:09:21.323Z,0.55
2024-01-20T08:11:48.929Z,0.58
2024-01-20T08:14:16.702Z,0.70
2024-01-20T08:16:44.123Z,0.62
2024-01-20T08:19:12.062Z,0.75
2024-01-20T08:21:39.556Z,0.78
2024-01-20T08:24:07.176Z,0.91
2024-01-20T08:26:34.570Z,1.01
2024-01-20T08:29:02.952Z,1.08
2024-01-20T08:31:30.348Z,1.17
2024-01-20T08:33:57.873Z,1.41
2024-01-20T08:36:25.370Z,1.57
2024-01-20T08:38:52.804Z,1.65
2024-01-20T08:41:20.221Z,1.57
2024-01-20T08:43:48.857Z,1.81
2024-01-20T08:46:16.318Z,2.42
2024-01-20T08:48:43.800Z,3.14
2024-01-20T08:51:11.255Z,3.30
2024-01-20T08:53:40.699Z,3.99
2024-01-20T08:56:10.307Z,4.59
2024-01-20T08:58:37.724Z,4.89
2024-01-20T09:01:07.620Z,4.90
2024-01-20T09:03:35.438Z,5.49
2024-01-20T09:06:03.825Z,5.42
2024-01-20T09:08:31.418Z,5.75
2024-01-20T09:10:59.619Z,5.45
2024-01-20T09:13:27.415Z,6.28
2024-01-20T09:15:55.532Z,6.34
2024-01-20T09:18:24.973Z,6.10
2024-01-20T09:20:52.760Z,6.35
2024-01-20T09:23:20.410Z,6.60
2024-01-20T09:25:48.937Z,6.47
2024-01-20T09:28:16.518Z,6.45
2024-01-20T09:30:44.054Z,6.88
2024-01-20T09:33:11.642Z,6.74
2024-01-20T09:35:39.257Z,6.85
2024-01-20T09:38:06.727Z,6.55
2024-01-20T09:40:36.267Z,6.88
2024-01-20T09:43:05.490Z,7.25
2024-01-20T09:45:39.451Z,7.08
2024-01-20T09:48:08.605Z,7.29
2024-01-20T09:50:36.273Z,7.10
2024-01-20T09:53:12.848Z,7.04
2024-01-20T09:55:43.286Z,6.86
2024-01-20T09:58:17.104Z,7.08
2024-01-20T10:00:45.281Z,7.23
2024-01-20T10:03:13.513Z,7.44
2024-01-20T10:05:41.297Z,7.53
2024-01-20T10:08:08.824Z,7.23
2024-01-20T10:10:36.321Z,6.98
2024-01-20T10:13:04.083Z,6.93
2024-01-20T10:15:34.683Z,6.93
2024-01-20T10:18:12.127Z,6.73
2024-01-20T10:20:40.229Z,6.51
2024-01-20T10:23:08.594Z,6.48
2024-01-20T10:25:36.899Z,6.24
2024-01-20T10:28:04.736Z,6.22
2024-01-20T10:30:32.824Z,6.25
2024-01-20T10:35:31.104Z,5.91
2024-01-20T10:38:02.021Z,5.96
2024-01-20T10:40:29.478Z,5.75
2024-01-20T10:43:08.806Z,5.58
2024-01-20T10:45:48.225Z,5.56
2024-01-20T10:48:28.174Z,5.41
2024-01-20T10:51:01.397Z,5.23
2024-01-20T10:53:29.230Z,5.15
2024-01-20T10:55:59.417Z,5.24
2024-01-20T10:58:57.822Z,4.94
2024-01-20T11:01:26.667Z,4.96
2024-01-20T11:03:54.269Z,5.05
2024-01-20T11:06:25.331Z,4.98
2024-01-20T11:08:53.523Z,4.81
2024-01-20T11:11:28.317Z,4.92
2024-01-20T11:14:02.874Z,4.97
2024-01-20T11:16:38.036Z,4.99
2024-01-20T11:19:10.872Z,4.87
2024-01-20T11:21:38.750Z,4.87
2024-01-20T11:24:06.677Z,4.88
2024-01-20T11:26:38.644Z,4.75
2024-01-20T11:29:09.796Z,4.84
2024-01-20T11:31:37.207Z,4.71
2024-01-20T11:34:07.288Z,4.84
2024-01-20T11:36:35.883Z,4.87
2024-01-20T11:39:06.166Z,4.82
2024-01-20T11:41:33.754Z,4.75
2024-01-20T11:44:01.554Z,4.77
2024-01-20T11:46:29.570Z,4.88
2024-01-20T11:48:57.095Z,4.82
2024-01-20T11:51:24.943Z,4.84
2024-01-20T11:53:52.951Z,5.05
2024-01-20T11:56:20.333Z,5.28
2024-01-20T11:58:48.091Z,5.08
2024-01-20T12:01:17.538Z,5.23
2024-01-20T12:03:45.509Z,5.34
2024-01-20T12:06:16.287Z,5.37
2024-01-20T12:08:46.410Z,5.54
2024-01-20T12:11:22.882Z,5.73
2024-01-20T12:13:50.900Z,5.76
2024-01-20T12:16:19.274Z,5.68
2024-01-20T12:18:47.463Z,5.84
2024-01-20T12:21:15.075Z,5.77
2024-01-20T12:23:42.520Z,5.78
2024-01-20T12:26:14.864Z,5.69
2024-01-20T12:28:47.722Z,5.64
2024-01-20T12:31:18.383Z,5.75
2024-01-20T12:33:47.915Z,5.69
2024-01-20T12:36:15.344Z,5.74
2024-01-20T12:38:42.786Z,5.72
2024-01-20T12:41:11.139Z,5.84
2024-01-20T12:43:38.732Z,5.82
2024-01-20T12:46:06.295Z,5.88
2024-01-20T12:48:33.891Z,5.80
2024-01-20T12:51:01.858Z,5.86
2024-01-20T12:53:29.538Z,5.77
2024-01-20T12:55:57.162Z,5.59
2024-01-20T12:58:24.543Z,5.50
2024-01-20T13:00:52.135Z,5.33
2024-01-20T13:03:19.646Z,5.16
2024-01-20T13:05:47.279Z,5.02
2024-01-20T13:08:15.067Z,4.98
2024-01-20T13:10:51.162Z,4.83
2024-01-20T13:13:19.793Z,4.71
2024-01-20T13:15:47.410Z,4.67
2024-01-20T13:18:15.411Z,4.60
2024-01-20T13:20:43.651Z,4.57
2024-01-20T13:23:11.165Z,4.59
2024-01-20T13:25:40.869Z,4.59
2024-01-20T13:28:08.423Z,4.50
2024-01-20T13:30:35.885Z,4.59
2024-01-20T13:33:03.628Z,4.67
2024-01-20T13:35:31.137Z,4.87
2024-01-20T13:37:58.531Z,5.09
2024-01-20T13:40:26.832Z,5.20
2024-01-20T13:42:54.401Z,5.19
2024-01-20T13:45:22.258Z,5.44
2024-01-20T13:47:49.675Z,5.38
2024-01-20T13:50:18.031Z,5.45
2024-01-20T13:52:45.403Z,5.52
2024-01-20T13:55:15.023Z,5.25
2024-01-20T13:57:42.444Z,5.29
2024-01-20T14:00:13.187Z,5.05
2024-01-20T14:02:48.364Z,4.98
2024-01-20T14:05:18.888Z,4.88
2024-01-20T14:07:46.523Z,4.91
2024-01-20T14:10:14.141Z,5.03
2024-01-20T14:12:41.585Z,5.08
2024-01-20T14:15:09.379Z,5.12
2024-01-20T14:17:36.908Z,5.23
2024-01-20T14:20:04.886Z,5.21
2024-01-20T14:22:32.248Z,5.22
2024-01-20T14:25:03.139Z,5.27
2024-01-20T14:27:30.683Z,5.22
2024-01-20T14:29:58.046Z,5.13
2024-01-20T14:32:25.710Z,5.00
2024-01-20T14:34:53.548Z,4.86
2024-01-20T14:37:20.934Z,4.52
2024-01-20T14:39:48.381Z,4.30
2024-01-20T14:42:15.923Z,4.10
2024-01-20T14:44:43.427Z,4.04
2024-01-20T14:47:11.015Z,4.08
2024-01-20T14:49:38.531Z,4.06
2024-01-20T14:52:06.252Z,3.80
2024-01-20T14:54:33.748Z,3.76
2024-01-20T14:57:01.185Z,3.76
2024-01-20T14:59:28.811Z,3.72
2024-01-20T15:01:56.249Z,3.72
2024-01-20T15:04:23.810Z,3.69
2024-01-20T15:06:51.728Z,3.60
2024-01-20T15:09:19.218Z,3.42
2024-01-20T15:11:46.875Z,3.45
2024-01-20T15:14:14.279Z,3.42
2024-01-20T15:16:42.923Z,3.38
2024-01-20T15:19:11.327Z,3.28
2024-01-20T15:21:39.383Z,3.09
2024-01-20T15:24:07.225Z,3.08
2024-01-20T15:26:34.995Z,3.04
2024-01-20T15:29:02.372Z,3.02
2024-01-20T15:31:29.854Z,2.99
2024-01-20T15:33:58.453Z,2.90
2024-01-20T15:36:26.123Z,2.88
2024-01-20T15:38:53.656Z,2.79
2024-01-20T15:41:21.591Z,2.87
2024-01-20T15:43:49.469Z,2.65
2024-01-20T15:46:22.204Z,2.81
2024-01-20T15:48:49.749Z,2.70
2024-01-20T15:51:18.206Z,2.81
2024-01-20T15:53:46.554Z,2.66
2024-01-20T15:56:15.062Z,2.62
2024-01-20T15:58:42.764Z,2.71
2024-01-20T16:01:10.253Z,2.80
2024-01-20T16:03:37.799Z,2.61
2024-01-20T16:06:05.964Z,2.77
2024-01-20T16:08:33.411Z,2.69
2024-01-20T16:11:00.792Z,2.56
2024-01-20T16:13:28.220Z,2.54
2024-01-20T16:15:55.664Z,2.67
2024-01-20T16:18:23.399Z,2.55
2024-01-20T16:20:51.017Z,2.59
2024-01-20T16:23:21.028Z,2.35
2024-01-20T16:25:48.558Z,2.57
2024-01-20T16:28:15.967Z,2.43
2024-01-20T16:30:43.786Z,2.60
2024-01-20T16:33:11.361Z,2.55
2024-01-20T16:35:38.941Z,2.58
2024-01-20T16:38:06.468Z,2.64
2024-01-20T16:40:34.108Z,2.61
2024-01-20T16:43:01.873Z,2.55
2024-01-20T16:45:29.344Z,2.56
2024-01-20T16:47:57.385Z,2.29
2024-01-20T16:50:24.918Z,2.33
2024-01-20T16:52:52.351Z,2.35
2024-01-20T16:55:19.766Z,2.38
2024-01-20T16:57:49.037Z,2.45
2024-01-20T17:00:17.292Z,2.46
2024-01-20T17:02:44.869Z,2.44
2024-01-20T17:05:12.285Z,2.41
2024-01-20T17:07:39.734Z,2.23
2024-01-20T17:10:08.030Z,2.32
2024-01-20T17:12:35.479Z,2.40
2024-01-20T17:15:03.033Z,2.33
2024-01-20T17:17:30.459Z,2.18
2024-01-20T17:19:59.887Z,2.14
2024-01-20T17:22:27.478Z,2.13
2024-01-20T17:24:55.124Z,2.15
2024-01-20T17:27:24.724Z,2.18
2024-01-20T17:29:52.130Z,2.16
2024-01-20T17:32:19.490Z,2.07
2024-01-20T17:34:46.893Z,2.12
2024-01-20T17:37:14.341Z,2.19
2024-01-20T17:39:42.131Z,1.87
2024-01-20T17:42:10.933Z,2.01
2024-01-20T17:44:38.670Z,2.03
2024-01-20T17:47:06.782Z,2.07
2024-01-20T17:49:35.275Z,2.07
2024-01-20T17:52:03.854Z,1.90
2024-01-20T17:54:33.103Z,2.05
2024-01-20T17:57:01.570Z,1.97
2024-01-20T17:59:30.116Z,2.03
2024-01-20T18:01:57.743Z,2.06
2024-01-20T18:04:25.279Z,2.01
2024-01-20T18:06:53.758Z,2.05
2024-01-20T18:09:21.433Z,1.86
2024-01-20T18:11:49.728Z,1.92
2024-01-20T18:14:17.444Z,1.93
2024-01-20T18:16:45.722Z,1.84
2024-01-20T18:19:13.289Z,1.91
2024-01-20T18:21:40.914Z,1.75
2024-01-20T18:24:09.186Z,1.88
2024-01-20T18:26:36.592Z,1.83
2024-01-20T18:29:04.092Z,1.47
2024-01-20T18:31:31.503Z,1.79
2024-01-20T18:33:59.554Z,1.76
2024-01-20T18:36:27.184Z,1.52
2024-01-20T18:38:54.777Z,1.79
2024-01-20T18:41:22.671Z,1.59
2024-01-20T18:43:50.133Z,1.47
2024-01-20T18:46:17.554Z,1.61
2024-01-20T18:48:45.072Z,1.57
2024-01-20T18:51:12.673Z,1.59
2024-01-20T18:53:42.646Z,1.57
2024-01-20T18:56:10.089Z,1.55
2024-01-20T18:58:38.773Z,1.54
2024-01-20T19:01:06.429Z,1.48
2024-01-20T19:03:34.306Z,1.17
2024-01-20T19:06:02.666Z,1.42
2024-01-20T19:08:30.376Z,1.41
2024-01-20T19:10:57.771Z,1.56
2024-01-20T19:13:25.476Z,1.38
2024-01-20T19:15:53.399Z,1.32
2024-01-20T19:18:21.247Z,1.30
2024-01-20T19:20:48.870Z,1.30
2024-01-20T19:23:17.161Z,1.27
2024-01-20T19:25:44.744Z,1.30
2024-01-20T19:28:12.226Z,1.26
2024-01-20T19:30:39.741Z,1.00
2024-01-20T19:33:07.347Z,1.02
2024-01-20T19:35:34.781Z,1.03
2024-01-20T19:38:03.137Z,1.25
2024-01-20T19:40:30.541Z,1.10
2024-01-20T19:42:58.850Z,1.17
2024-01-20T19:45:26.229Z,1.02
2024-01-20T19:47:53.820Z,1.28
2024-01-20T19:50:21.253Z,1.06
2024-01-20T19:52:48.962Z,0.88
2024-01-20T19:55:16.613Z,1.01
2024-01-20T19:57:44.202Z,1.15
2024-01-20T20:00:12.651Z,1.10
2024-01-20T20:02:40.307Z,1.08
2024-01-20T20:05:07.977Z,1.22
2024-01-20T20:07:35.901Z,1.13
2024-01-20T20:10:03.834Z,0.95
2024-01-20T20:12:31.891Z,1.12
2024-01-20T20:14:59.549Z,0.95
2024-01-20T20:17:26.930Z,1.05
2024-01-20T20:19:57.872Z,1.03
2024-01-20T20:22:25.554Z,1.00
2024-01-20T20:24:53.247Z,0.81
2024-01-20T20:27:22.753Z,0.99
2024-01-20T20:29:50.457Z,1.04
2024-01-20T20:32:21.747Z,0.96
2024-01-20T20:34:57.881Z,1.12
2024-01-20T20:37:25.573Z,0.95
2024-01-20T20:39:56.621Z,1.08
2024-01-20T20:42:24.485Z,0.98
2024-01-20T20:44:52.539Z,1.02
2024-01-20T20:47:23.052Z,0.94
2024-01-20T20:49:51.749Z,0.97
2024-01-20T20:52:19.381Z,1.06
2024-01-20T20:54:49.663Z,1.10
2024-01-20T20:57:19.055Z,0.97
2024-01-20T20:59:46.537Z,0.86
2024-01-20T21:02:14.088Z,0.96
2024-01-20T21:04:41.646Z,0.64
2024-01-20T21:07:09.176Z,0.56
2024-01-20T21:09:36.698Z,0.71
2024-01-20T21:12:04.544Z,0.82
2024-01-20T21:14:32.043Z,0.86
2024-01-20T21:16:59.552Z,0.91
2024-01-20T21:19:27.393Z,0.75
2024-01-20T21:21:57.235Z,0.75
2024-01-20T21:24:25.737Z,0.79
2024-01-20T21:26:54.537Z,0.69
2024-01-20T21:29:21.905Z,0.76
2024-01-20T21:31:49.546Z,0.67
2024-01-20T21:34:16.991Z,0.46
2024-01-20T21:36:44.486Z,0.66
2024-01-20T21:39:13.202Z,0.69
2024-01-20T21:41:40.557Z,0.31
2024-01-20T21:44:08.127Z,0.72
2024-01-20T21:46:36.811Z,0.52
2024-01-20T21:49:05.198Z,0.48
2024-01-20T21:51:32.946Z,0.46
2024-01-20T21:54:00.379Z,0.47
2024-01-20T21:56:28.065Z,0.55
2024-01-20T21:58:55.711Z,0.68
2024-01-20T22:01:25.298Z,0.71
2024-01-20T22:03:52.998Z,0.61
2024-01-20T22:06:20.880Z,0.55
2024-01-20T22:08:48.298Z,0.59
2024-01-20T22:11:15.892Z,0.68
2024-01-20T22:13:43.653Z,0.72
2024-01-20T22:16:11.127Z,0.81
2024-01-20T22:18:38.759Z,0.91
2024-01-20T22:21:13.330Z,0.75
2024-01-20T22:23:43.662Z,0.83
2024-01-20T22:26:21.964Z,0.76
2024-01-20T22:28:49.958Z,0.83
2024-01-20T22:31:17.528Z,0.81
2024-01-20T22:33:44.960Z,0.73
2024-01-20T22:36:12.500Z,0.87
2024-01-20T22:38:40.019Z,0.99
2024-01-20T22:41:07.407Z,0.58
2024-01-20T22:43:34.827Z,0.76
2024-01-20T22:46:02.209Z,0.88
2024-01-20T22:48:34.761Z,1.07
2024-01-20T22:51:03.533Z,0.92
2024-01-20T22:53:33.076Z,0.92
2024-01-20T22:56:00.493Z,0.67
2024-01-20T22:58:27.981Z,0.82
2024-01-20T23:00:55.533Z,0.50
2024-01-20T23:03:23.076Z,0.73
2024-01-20T23:05:50.515Z,0.12
2024-01-20T23:08:18.920Z,0.83
2024-01-20T23:10:46.382Z,0.77
2024-01-20T23:13:13.789Z,0.60
2024-01-20T23:15:41.431Z,0.53
2024-01-20T23:18:09.316Z,0.61
2024-01-20T23:20:37.575Z,0.71
2024-01-20T23:23:05.465Z,0.62
2024-01-20T23:25:32.840Z,0.74
2024-01-20T23:28:00.387Z,0.87
2024-01-20T23:30:31.509Z,0.82
2024-01-20T23:32:59.895Z,0.84
2024-01-20T23:35:27.622Z,0.96
2024-01-20T23:37:55.500Z,0.67
2024-01-20T23:40:22.876Z,0.84
2024-01-20T23:42:50.283Z,0.89
2024-01-20T23:45:18.946Z,0.94
2024-01-20T23:47:46.532Z,0.81
2024-01-20T23:50:14.453Z,0.90
2024-01-20T23:52:41.839Z,0.84
2024-01-20T23:55:09.557Z,0.99
2024-01-20T23:57:39.879Z,0.88
